Time;durP1;ratioP1;P1;durP2;ratioP2;P2;SDS_P1;SDS_P2;PMS_P1;PMS_P2;Temp;Humidity;BMP_temperature;BMP_pressure;BME280_temperature;BME280_humidity;BME280_pressure;Samples;Min_cycle;Max_cycle;Signal;HPM_P1;HPM_P2
2022/12/13 00:00:19;;;;;;;2.40;2.00;;;-8.40;99.90;;;;;;5052571;28;20195;-46
2022/12/13 00:02:46;;;;;;;3.97;2.70;;;-8.50;99.90;;;;;;5051872;28;20195;-46
2022/12/13 00:05:13;;;;;;;3.75;2.00;;;-8.40;99.90;;;;;;5052237;28;20219;-46
2022/12/13 00:07:40;;;;;;;3.92;2.05;;;-8.50;99.90;;;;;;5051766;28;20653;-46
2022/12/13 00:10:08;;;;;;;3.67;1.73;;;-8.50;99.90;;;;;;5051987;28;20218;-46
2022/12/13 00:12:35;;;;;;;2.83;2.17;;;-8.20;99.90;;;;;;5051894;28;20282;-47
2022/12/13 00:15:04;;;;;;;2.08;1.25;;;-8.40;99.90;;;;;;5051599;28;20237;-46
2022/12/13 00:17:32;;;;;;;2.33;1.80;;;-8.40;99.90;;;;;;5052038;28;20294;-46
2022/12/13 00:19:59;;;;;;;2.88;1.85;;;-8.40;99.90;;;;;;5050958;28;20279;-47
2022/12/13 00:22:25;;;;;;;5.35;2.80;;;-8.10;99.90;;;;;;5051413;28;20195;-46
2022/12/13 00:24:54;;;;;;;2.40;2.20;;;-8.20;99.90;;;;;;5051758;28;20219;-46
2022/12/13 00:27:21;;;;;;;3.85;1.88;;;-8.30;99.90;;;;;;5051749;28;20199;-46
2022/12/13 00:29:47;;;;;;;2.60;2.25;;;-8.50;99.90;;;;;;5051414;28;20215;-46
2022/12/13 00:32:16;;;;;;;5.80;2.10;;;-8.50;99.90;;;;;;5051522;28;20191;-46
2022/12/13 00:34:43;;;;;;;2.10;1.65;;;-8.60;99.90;;;;;;5051355;28;20671;-46
2022/12/13 00:37:09;;;;;;;4.15;2.45;;;-8.80;99.90;;;;;;5051596;28;20207;-49
2022/12/13 00:39:36;;;;;;;3.13;2.60;;;-8.90;99.90;;;;;;5051802;28;20629;-47
2022/12/13 00:42:03;;;;;;;3.90;2.60;;;-9.00;99.90;;;;;;5051035;28;20270;-45
2022/12/13 00:44:31;;;;;;;2.85;2.50;;;-8.60;99.90;;;;;;5050956;28;20211;-49
2022/12/13 00:46:57;;;;;;;3.95;2.83;;;-8.70;99.90;;;;;;5051451;28;20202;-46
2022/12/13 00:49:26;;;;;;;3.10;2.80;;;-8.50;99.90;;;;;;5051465;28;20221;-49
2022/12/13 00:51:53;;;;;;;2.47;1.58;;;-8.60;99.90;;;;;;5051217;28;20283;-48
2022/12/13 00:54:19;;;;;;;2.10;1.90;;;-9.30;99.90;;;;;;5051335;28;20290;-46
2022/12/13 00:56:46;;;;;;;4.50;2.20;;;-9.30;99.90;;;;;;5051041;28;20210;-46
2022/12/13 00:59:14;;;;;;;1.65;1.50;;;-8.80;99.90;;;;;;5051779;28;20286;-47
2022/12/13 01:01:41;;;;;;;3.55;1.60;;;-8.60;99.90;;;;;;5050363;28;20699;-47
2022/12/13 01:04:10;;;;;;;2.58;2.10;;;-8.40;99.90;;;;;;5050744;28;20200;-50
2022/12/13 01:06:40;;;;;;;3.38;2.53;;;-8.50;99.90;;;;;;5051407;28;20290;-48
2022/12/13 01:09:12;;;;;;;2.67;2.38;;;-8.70;99.90;;;;;;5051550;28;20223;-46
2022/12/13 01:11:39;;;;;;;2.72;1.88;;;-8.60;99.90;;;;;;5050806;28;20197;-46
2022/12/13 01:14:06;;;;;;;2.95;2.30;;;-9.00;99.90;;;;;;5050774;28;20306;-46
2022/12/13 01:16:32;;;;;;;5.40;2.53;;;-9.10;99.90;;;;;;5051318;28;20219;-47
2022/12/13 01:18:59;;;;;;;4.30;2.53;;;-9.00;99.90;;;;;;5051376;28;20195;-47
2022/12/13 01:21:26;;;;;;;4.18;2.00;;;-8.90;99.90;;;;;;5050703;28;20225;-46
2022/12/13 01:23:56;;;;;;;1.88;1.50;;;-8.90;99.90;;;;;;5050417;28;20560;-46
2022/12/13 01:26:23;;;;;;;2.30;1.80;;;-8.90;99.90;;;;;;5050882;28;20700;-47
2022/12/13 01:28:49;;;;;;;2.67;2.13;;;-8.60;99.90;;;;;;5050803;28;20298;-48
2022/12/13 01:31:20;;;;;;;3.05;1.75;;;-8.40;99.90;;;;;;5050412;28;20589;-46
2022/12/13 01:33:47;;;;;;;2.70;2.17;;;-8.40;99.90;;;;;;5054686;28;20282;-46
2022/12/13 01:36:16;;;;;;;2.63;2.25;;;-8.60;99.90;;;;;;5054641;28;20313;-49
2022/12/13 01:38:43;;;;;;;1.88;1.60;;;-8.40;99.90;;;;;;5055350;28;20545;-46
2022/12/13 01:41:14;;;;;;;1.25;1.15;;;-8.70;99.90;;;;;;5054731;28;20219;-48
2022/12/13 01:43:56;;;;;;;1.85;1.60;;;-9.00;99.90;;;;;;5054340;28;20278;-46
2022/12/13 01:46:23;;;;;;;3.55;2.35;;;-9.00;99.90;;;;;;5054856;28;20219;-46
2022/12/13 01:48:56;;;;;;;5.20;2.00;;;-9.20;99.90;;;;;;5054659;28;20217;-49
2022/12/13 01:51:28;;;;;;;2.25;1.50;;;-9.00;99.90;;;;;;5054611;28;20286;-49
2022/12/13 01:53:58;;;;;;;2.30;2.05;;;-8.80;99.90;;;;;;5053781;28;20195;-46
2022/12/13 01:56:31;;;;;;;3.05;2.45;;;-9.10;99.90;;;;;;5055085;28;20309;-47
2022/12/13 01:59:00;;;;;;;3.15;2.17;;;-9.50;99.90;;;;;;5054952;28;20222;-46
2022/12/13 02:01:28;;;;;;;2.58;2.35;;;-9.60;99.90;;;;;;5053915;28;20192;-47
2022/12/13 02:03:54;;;;;;;3.00;1.35;;;-9.50;99.90;;;;;;5054578;28;20289;-47
2022/12/13 02:06:28;;;;;;;4.82;2.17;;;-9.20;99.90;;;;;;5053938;28;20306;-46
2022/12/13 02:08:55;;;;;;;4.05;2.95;;;-9.10;99.90;;;;;;5054470;28;20306;-46
2022/12/13 02:11:22;;;;;;;3.30;1.88;;;-9.00;99.90;;;;;;5054286;28;20238;-46
2022/12/13 02:13:51;;;;;;;2.47;2.28;;;-8.90;99.90;;;;;;5054195;28;20286;-48
2022/12/13 02:16:29;;;;;;;4.18;3.00;;;-8.70;99.90;;;;;;5054194;28;20371;-47
2022/12/13 02:19:10;;;;;;;2.88;2.67;;;-8.60;99.90;;;;;;5054494;28;20605;-47
2022/12/13 02:21:45;;;;;;;2.42;2.03;;;-8.60;99.90;;;;;;5053810;28;20203;-46
2022/12/13 02:24:44;;;;;;;2.05;1.55;;;-8.80;99.90;;;;;;5053981;28;20260;-46
2022/12/13 02:27:19;;;;;;;2.10;1.90;;;-8.80;99.90;;;;;;5031504;28;20206;-46
2022/12/13 02:30:16;;;;;;;2.00;1.80;;;-9.10;99.90;;;;;;5053439;28;20526;-47
2022/12/13 02:32:57;;;;;;;4.00;2.35;;;-9.40;99.90;;;;;;5053181;28;20188;-47
2022/12/13 02:35:32;;;;;;;1.90;1.80;;;-9.80;99.90;;;;;;5054884;28;20314;-46
2022/12/13 02:38:07;;;;;;;2.15;1.92;;;-10.00;99.90;;;;;;5054281;28;20285;-46
2022/12/13 02:40:38;;;;;;;2.00;1.77;;;-9.60;99.90;;;;;;5053911;28;20281;-47
2022/12/13 02:43:11;;;;;;;1.85;1.60;;;-9.60;99.90;;;;;;5052600;28;20884;-46
2022/12/13 02:45:45;;;;;;;2.60;2.30;;;-9.30;99.90;;;;;;5053988;28;20310;-46
2022/12/13 02:48:14;;;;;;;4.22;1.80;;;-9.40;99.90;;;;;;5053863;28;20680;-47
2022/12/13 02:50:43;;;;;;;1.50;1.40;;;-9.50;99.90;;;;;;5053871;28;20223;-46
2022/12/13 02:53:10;;;;;;;3.58;3.08;;;-9.30;99.90;;;;;;5052820;28;20206;-46
2022/12/13 02:55:39;;;;;;;2.28;1.67;;;-9.10;99.90;;;;;;5053214;28;20223;-46
2022/12/13 02:58:06;;;;;;;2.83;2.25;;;-9.10;99.90;;;;;;5053234;28;20635;-46
2022/12/13 03:00:46;;;;;;;3.03;2.03;;;-9.10;99.90;;;;;;5053756;28;20201;-46
2022/12/13 03:03:23;;;;;;;1.55;1.23;;;-8.90;99.90;;;;;;5052757;28;20281;-46
2022/12/13 03:08:54;;;;;;;1.80;1.65;;;-9.00;99.90;;;;;;5045698;28;20225;-46
2022/12/13 03:11:23;;;;;;;1.52;1.42;;;-8.80;99.90;;;;;;5053138;28;20199;-49
2022/12/13 03:13:53;;;;;;;1.42;1.33;;;-9.00;99.90;;;;;;5033083;28;20231;-46
2022/12/13 03:16:27;;;;;;;2.20;1.80;;;-8.80;99.90;;;;;;5033117;28;20596;-49
2022/12/13 03:18:57;;;;;;;1.75;1.52;;;-9.00;99.90;;;;;;5040929;28;20664;-49
2022/12/13 03:21:24;;;;;;;3.10;2.70;;;-8.80;99.90;;;;;;5052615;28;20294;-49
2022/12/13 03:23:51;;;;;;;3.15;2.40;;;-9.00;99.90;;;;;;5047607;28;20284;-46
2022/12/13 03:26:21;;;;;;;4.45;2.22;;;-9.10;99.90;;;;;;5053030;28;20323;-49
2022/12/13 03:28:49;;;;;;;2.83;1.42;;;-8.80;99.90;;;;;;5053025;28;20234;-49
2022/12/13 03:31:16;;;;;;;7.28;2.20;;;-8.80;99.90;;;;;;5052801;28;20690;-46
2022/12/13 03:33:45;;;;;;;1.85;1.75;;;-9.30;99.90;;;;;;5052177;28;20684;-47
2022/12/13 03:36:12;;;;;;;2.55;1.88;;;-9.10;99.90;;;;;;5052638;28;20227;-46
2022/12/13 03:38:40;;;;;;;1.70;1.60;;;-8.90;99.90;;;;;;5052713;28;20215;-46
2022/12/13 03:41:09;;;;;;;2.35;1.58;;;-9.20;99.90;;;;;;5052719;28;20231;-46
2022/12/13 03:43:36;;;;;;;2.30;2.00;;;-9.40;99.90;;;;;;5052518;28;20218;-46
2022/12/13 03:46:03;;;;;;;1.55;1.45;;;-9.40;99.90;;;;;;5052908;28;20310;-48
2022/12/13 03:48:30;;;;;;;2.08;1.70;;;-9.60;99.90;;;;;;5052897;28;20278;-47
2022/12/13 03:50:58;;;;;;;1.95;1.80;;;-9.90;99.90;;;;;;5052501;28;20310;-46
2022/12/13 03:53:26;;;;;;;2.83;1.15;;;-9.80;99.90;;;;;;5051831;28;20234;-46
2022/12/13 03:55:52;;;;;;;2.60;1.75;;;-9.40;99.90;;;;;;5051442;28;20649;-46
2022/12/13 03:58:19;;;;;;;2.50;1.70;;;-9.10;99.90;;;;;;5052038;28;20206;-46
2022/12/13 04:00:46;;;;;;;1.70;1.50;;;-8.80;99.90;;;;;;5052420;28;20457;-46
2022/12/13 04:03:13;;;;;;;1.20;1.00;;;-9.10;99.90;;;;;;5051638;28;20290;-46
2022/12/13 04:05:40;;;;;;;1.63;1.10;;;-9.40;99.90;;;;;;5052144;28;20716;-46
2022/12/13 04:08:08;;;;;;;1.13;1.00;;;-9.60;99.90;;;;;;5052327;28;20196;-48
2022/12/13 04:10:35;;;;;;;1.80;1.10;;;-9.40;99.90;;;;;;5051606;28;20215;-48
2022/12/13 04:15:48;;;;;;;1.67;1.58;;;-9.20;99.90;;;;;;5051544;28;20272;-47
2022/12/13 04:18:16;;;;;;;2.80;1.60;;;-8.90;99.90;;;;;;5051591;28;20565;-46
2022/12/13 04:20:43;;;;;;;1.30;1.20;;;-9.30;99.90;;;;;;5050512;28;20278;-46
2022/12/13 04:23:11;;;;;;;1.55;1.45;;;-9.30;99.90;;;;;;5050521;28;20202;-46
2022/12/13 04:25:39;;;;;;;2.38;1.60;;;-9.20;99.90;;;;;;5051765;28;20219;-48
2022/12/13 04:28:07;;;;;;;2.10;1.40;;;-9.30;99.90;;;;;;5051835;28;20245;-46
2022/12/13 04:30:35;;;;;;;2.75;1.67;;;-9.80;99.90;;;;;;5051628;28;20214;-46
2022/12/13 04:33:02;;;;;;;2.13;1.90;;;-9.70;99.90;;;;;;5051416;28;20203;-46
2022/12/13 04:35:29;;;;;;;2.45;1.88;;;-9.50;99.90;;;;;;5051480;28;20227;-47
2022/12/13 04:37:56;;;;;;;2.85;1.67;;;-10.00;99.90;;;;;;5051430;28;20223;-46
2022/12/13 04:40:25;;;;;;;4.00;1.55;;;-9.80;99.90;;;;;;5051645;28;20206;-48
2022/12/13 04:42:53;;;;;;;2.28;1.50;;;-9.70;99.90;;;;;;5051032;28;20196;-47
2022/12/13 04:45:21;;;;;;;1.55;1.45;;;-9.30;99.90;;;;;;5051347;28;20219;-46
2022/12/13 04:47:48;;;;;;;1.40;1.30;;;-9.50;99.90;;;;;;5052047;28;20282;-46
2022/12/13 04:50:15;;;;;;;1.90;1.70;;;-9.50;99.90;;;;;;5051119;28;20219;-46
2022/12/13 04:52:43;;;;;;;2.20;1.67;;;-9.60;99.90;;;;;;5050740;28;20265;-48
2022/12/13 04:55:10;;;;;;;1.30;1.20;;;-9.70;99.90;;;;;;5051954;28;20211;-46
2022/12/13 04:57:39;;;;;;;2.55;2.20;;;-9.40;99.90;;;;;;5051985;28;20227;-46
2022/12/13 05:00:08;;;;;;;2.15;1.95;;;-9.20;99.90;;;;;;5051428;28;20284;-45
2022/12/13 05:02:35;;;;;;;2.80;2.60;;;-9.90;99.90;;;;;;5051179;28;20199;-48
2022/12/13 05:05:02;;;;;;;3.55;1.88;;;-9.80;99.90;;;;;;5052089;28;20219;-48
2022/12/13 05:07:29;;;;;;;1.77;1.67;;;-9.50;99.90;;;;;;5051331;28;20286;-46
2022/12/13 05:09:56;;;;;;;2.92;1.60;;;-9.80;99.90;;;;;;5050653;28;20222;-47
2022/12/13 05:12:23;;;;;;;1.80;1.70;;;-10.00;99.90;;;;;;5050957;28;20214;-49
2022/12/13 05:14:52;;;;;;;2.55;1.70;;;-10.10;99.90;;;;;;5050644;28;20219;-47
2022/12/13 05:17:19;;;;;;;2.95;1.98;;;-9.90;99.90;;;;;;5051167;28;20195;-46
2022/12/13 05:19:46;;;;;;;2.42;2.22;;;-9.90;99.90;;;;;;5051002;28;20739;-46
2022/12/13 05:22:15;;;;;;;2.75;2.33;;;-10.00;99.90;;;;;;5050853;28;20290;-47
2022/12/13 05:24:43;;;;;;;2.95;1.73;;;-9.80;99.90;;;;;;5050630;28;20219;-48
2022/12/13 05:27:10;;;;;;;2.67;2.47;;;-9.90;99.90;;;;;;5049801;28;20209;-47
2022/12/13 05:29:37;;;;;;;2.95;1.77;;;-10.10;99.90;;;;;;5051177;28;20672;-47
2022/12/13 05:32:05;;;;;;;3.33;2.05;;;-9.90;99.90;;;;;;5050439;28;20282;-46
2022/12/13 05:34:32;;;;;;;2.63;2.42;;;-9.80;99.90;;;;;;5049935;28;20652;-46
2022/12/13 05:36:59;;;;;;;4.03;2.05;;;-9.80;99.90;;;;;;5040691;28;20195;-47
2022/12/13 05:39:26;;;;;;;2.30;2.10;;;-9.70;99.90;;;;;;5050661;28;20282;-47
2022/12/13 05:41:53;;;;;;;2.35;2.15;;;-9.50;99.90;;;;;;5050099;28;20737;-46
2022/12/13 05:44:20;;;;;;;7.40;3.97;;;-9.70;99.90;;;;;;5050886;28;20294;-46
2022/12/13 05:46:47;;;;;;;6.32;3.55;;;-9.80;99.90;;;;;;5040418;28;20218;-46
2022/12/13 05:49:15;;;;;;;1.70;1.60;;;-9.50;99.90;;;;;;5045603;28;20210;-46
2022/12/13 05:51:42;;;;;;;3.92;3.63;;;-9.40;99.90;;;;;;5050296;28;20191;-46
2022/12/13 05:54:09;;;;;;;4.18;3.78;;;-9.40;99.90;;;;;;5050464;28;20203;-45
2022/12/13 05:56:36;;;;;;;3.88;3.58;;;-9.50;99.90;;;;;;5050706;28;20299;-46
2022/12/13 05:59:03;;;;;;;3.70;3.35;;;-9.60;99.90;;;;;;5049721;28;20227;-46
2022/12/13 06:01:30;;;;;;;2.70;2.50;;;-9.80;99.90;;;;;;5050358;28;20282;-46
2022/12/13 06:03:57;;;;;;;6.32;3.10;;;-9.50;99.90;;;;;;5048270;28;20218;-50
2022/12/13 06:06:25;;;;;;;4.70;3.05;;;-9.40;99.90;;;;;;5049702;28;20298;-47
2022/12/13 06:08:52;;;;;;;9.35;8.55;;;-9.30;99.90;;;;;;5050067;28;20196;-46
2022/12/13 06:11:18;;;;;;;6.40;5.20;;;-9.50;99.90;;;;;;5050415;28;20215;-50
2022/12/13 06:13:51;;;;;;;5.00;4.57;;;-9.40;99.90;;;;;;5050113;28;20289;-48
2022/12/13 06:16:17;;;;;;;6.18;5.57;;;-9.30;99.90;;;;;;5049529;28;20299;-47
2022/12/13 06:18:44;;;;;;;6.80;6.10;;;-9.40;99.90;;;;;;5052075;28;20285;-46
2022/12/13 06:21:11;;;;;;;6.03;5.30;;;-9.60;99.90;;;;;;5054447;28;20569;-49
2022/12/13 06:23:39;;;;;;;3.58;2.70;;;-9.60;99.90;;;;;;5043882;28;20755;-47
2022/12/13 06:26:07;;;;;;;2.85;2.00;;;-9.60;99.90;;;;;;5053971;28;20211;-46
2022/12/13 06:28:34;;;;;;;2.72;2.45;;;-9.80;99.90;;;;;;5053291;28;20200;-49
2022/12/13 06:31:01;;;;;;;4.55;2.20;;;-9.50;99.90;;;;;;5054196;28;20225;-47
2022/12/13 06:33:28;;;;;;;11.05;4.57;;;-9.60;99.90;;;;;;5053532;28;20731;-48
2022/12/13 06:35:57;;;;;;;4.45;3.97;;;-9.60;99.90;;;;;;5053725;28;20235;-47
2022/12/13 06:38:24;;;;;;;5.20;4.80;;;-9.90;99.90;;;;;;5054437;28;20620;-46
2022/12/13 06:40:53;;;;;;;9.43;4.50;;;-9.90;99.90;;;;;;5053736;28;20664;-46
2022/12/13 06:43:19;;;;;;;6.05;4.10;;;-9.70;99.90;;;;;;5053671;28;20679;-46
2022/12/13 06:45:46;;;;;;;5.30;2.33;;;-9.60;99.90;;;;;;5053393;28;20310;-47
2022/12/13 06:48:14;;;;;;;2.92;2.35;;;-10.00;99.90;;;;;;5053789;28;20206;-48
2022/12/13 06:50:41;;;;;;;6.15;1.90;;;-10.10;99.90;;;;;;5053448;28;20223;-46
2022/12/13 06:53:07;;;;;;;6.25;2.90;;;-10.10;99.90;;;;;;5052799;28;20213;-47
2022/12/13 06:55:35;;;;;;;3.72;2.42;;;-10.10;99.90;;;;;;5053382;28;20223;-46
2022/12/13 06:58:04;;;;;;;3.53;3.20;;;-10.00;99.90;;;;;;5053787;28;20196;-47
2022/12/13 07:00:31;;;;;;;2.47;2.28;;;-10.00;99.90;;;;;;5053447;28;20581;-46
2022/12/13 07:02:57;;;;;;;4.35;3.42;;;-10.30;99.90;;;;;;5052887;28;20199;-46
2022/12/13 07:05:26;;;;;;;7.95;7.20;;;-10.10;99.90;;;;;;5053130;28;20722;-45
2022/12/13 07:07:54;;;;;;;5.30;4.80;;;-10.10;99.90;;;;;;5053485;28;20280;-50
2022/12/13 07:10:21;;;;;;;2.85;2.55;;;-9.70;99.90;;;;;;5053272;28;20216;-47
2022/12/13 07:12:48;;;;;;;10.32;3.38;;;-9.70;99.90;;;;;;5053244;28;20206;-47
2022/12/13 07:15:16;;;;;;;5.65;4.40;;;-9.70;99.90;;;;;;5052457;28;20223;-48
2022/12/13 07:17:43;;;;;;;4.90;4.50;;;-9.70;99.90;;;;;;5053480;28;20290;-47
2022/12/13 07:20:12;;;;;;;4.60;3.97;;;-9.40;99.90;;;;;;5053213;28;20286;-46
2022/12/13 07:22:39;;;;;;;3.83;2.60;;;-9.70;99.90;;;;;;5052959;28;20199;-48
2022/12/13 07:25:06;;;;;;;4.05;2.95;;;-9.40;99.90;;;;;;5052470;28;20314;-48
2022/12/13 07:27:33;;;;;;;4.97;4.30;;;-9.30;99.90;;;;;;5053069;28;20290;-50
2022/12/13 07:30:00;;;;;;;7.22;4.68;;;-9.80;99.90;;;;;;5052848;28;20290;-46
2022/12/13 07:32:29;;;;;;;7.50;3.83;;;-9.90;99.90;;;;;;5053088;28;20487;-46
2022/12/13 07:34:55;;;;;;;2.67;2.47;;;-9.70;99.90;;;;;;5052469;28;20544;-47
2022/12/13 07:37:22;;;;;;;11.27;4.53;;;-10.00;99.90;;;;;;5052856;28;20202;-49
2022/12/13 07:39:49;;;;;;;5.63;4.43;;;-9.70;99.90;;;;;;5052593;28;20192;-47
2022/12/13 07:42:16;;;;;;;6.60;4.40;;;-9.50;99.90;;;;;;5052931;28;20298;-48
2022/12/13 07:44:43;;;;;;;3.53;3.10;;;-9.40;99.90;;;;;;5052385;28;20258;-47
2022/12/13 07:47:09;;;;;;;13.77;6.18;;;-9.70;99.90;;;;;;5052574;28;20199;-46
2022/12/13 07:49:39;;;;;;;5.38;3.80;;;-9.30;99.90;;;;;;5052593;28;20204;-48
2022/12/13 07:52:11;;;;;;;6.88;4.40;;;-9.40;99.90;;;;;;5051959;28;20641;-46
2022/12/13 07:54:38;;;;;;;30.50;12.98;;;-9.30;99.90;;;;;;5052094;28;20226;-44
2022/12/13 07:57:04;;;;;;;11.43;6.78;;;-9.20;99.90;;;;;;5052691;28;20298;-47
2022/12/13 07:59:31;;;;;;;4.60;3.58;;;-9.10;99.90;;;;;;5052379;28;20282;-49
2022/12/13 08:01:58;;;;;;;4.00;3.60;;;-9.50;99.90;;;;;;5052072;28;20191;-46
2022/12/13 08:04:25;;;;;;;5.43;3.70;;;-9.80;99.90;;;;;;5051351;28;20203;-47
2022/12/13 08:06:53;;;;;;;7.18;3.78;;;-9.50;99.90;;;;;;5050699;28;20756;-49
2022/12/13 08:09:20;;;;;;;4.38;3.25;;;-9.50;99.90;;;;;;5050710;28;20207;-50
2022/12/13 08:11:47;;;;;;;3.50;3.00;;;-9.50;99.90;;;;;;5050702;28;20245;-48
2022/12/13 08:14:14;;;;;;;4.25;3.85;;;-9.50;99.90;;;;;;5050673;28;20203;-47
2022/12/13 08:16:40;;;;;;;8.57;5.72;;;-9.30;99.90;;;;;;5051049;28;20233;-48
2022/12/13 08:19:10;;;;;;;10.20;4.70;;;-9.50;99.90;;;;;;5051672;28;20200;-46
2022/12/13 08:21:39;;;;;;;7.03;4.15;;;-9.00;99.90;;;;;;5052088;28;20632;-45
2022/12/13 08:24:07;;;;;;;5.45;3.60;;;-9.30;99.90;;;;;;5051780;28;20675;-46
2022/12/13 08:26:34;;;;;;;5.13;2.83;;;-9.40;99.90;;;;;;5052005;28;20199;-47
2022/12/13 08:29:03;;;;;;;2.47;2.28;;;-9.40;99.90;;;;;;5051852;28;20196;-47
2022/12/13 08:31:29;;;;;;;2.70;2.50;;;-10.10;99.90;;;;;;5052134;28;20227;-47
2022/12/13 08:33:56;;;;;;;3.63;2.92;;;-9.90;99.90;;;;;;5051582;28;20290;-46
2022/12/13 08:36:24;;;;;;;4.05;3.50;;;-9.60;99.90;;;;;;5052909;28;20608;-46
2022/12/13 08:38:52;;;;;;;4.85;4.40;;;-9.40;99.90;;;;;;5050926;28;20286;-45
2022/12/13 08:41:20;;;;;;;7.55;5.43;;;-9.40;99.90;;;;;;5050705;28;20565;-47
2022/12/13 08:43:47;;;;;;;7.25;5.88;;;-9.30;99.90;;;;;;5045387;28;20206;-46
2022/12/13 08:46:14;;;;;;;7.47;5.22;;;-9.30;99.90;;;;;;5046568;28;20220;-48
2022/12/13 08:48:41;;;;;;;7.20;5.15;;;-9.60;99.90;;;;;;5047857;28;20625;-47
2022/12/13 08:51:11;;;;;;;7.53;5.90;;;-9.20;99.90;;;;;;5045522;28;20615;-51
2022/12/13 08:53:38;;;;;;;5.43;4.70;;;-9.10;99.90;;;;;;5050426;28;20198;-46
2022/12/13 08:56:08;;;;;;;4.32;3.83;;;-9.40;99.90;;;;;;5047793;28;20302;-47
2022/12/13 08:58:36;;;;;;;7.85;4.30;;;-9.70;99.90;;;;;;5051088;28;20202;-46
2022/12/13 09:01:06;;;;;;;6.70;3.60;;;-10.00;99.90;;;;;;5050920;28;20195;-50
2022/12/13 09:03:33;;;;;;;5.70;3.40;;;-10.00;99.90;;;;;;5050066;28;20195;-48
2022/12/13 09:06:07;;;;;;;3.70;3.40;;;-9.90;99.90;;;;;;5049968;28;20302;-48
2022/12/13 09:08:34;;;;;;;3.38;3.03;;;-9.60;99.90;;;;;;5038525;28;20206;-46
2022/12/13 09:11:02;;;;;;;4.13;3.75;;;-9.50;99.90;;;;;;5051014;28;20207;-47
2022/12/13 09:13:30;;;;;;;5.38;4.88;;;-9.40;99.90;;;;;;5050591;28;20195;-48
2022/12/13 09:15:59;;;;;;;6.28;4.47;;;-9.20;99.90;;;;;;5050474;28;20215;-48
2022/12/13 09:18:26;;;;;;;5.30;4.80;;;-9.60;99.90;;;;;;5050382;28;20518;-48
2022/12/13 09:20:53;;;;;;;5.28;4.60;;;-9.40;99.90;;;;;;5045378;28;20192;-48
2022/12/13 09:23:19;;;;;;;3.63;3.33;;;-9.50;99.90;;;;;;5049859;28;20195;-47
2022/12/13 09:25:53;;;;;;;5.88;4.38;;;-9.30;99.90;;;;;;5049682;28;20217;-46
2022/12/13 09:28:20;;;;;;;7.75;4.05;;;-9.10;99.90;;;;;;5050977;28;20202;-46
2022/12/13 09:30:47;;;;;;;5.75;4.18;;;-8.80;99.90;;;;;;5050682;28;20305;-50
2022/12/13 09:33:15;;;;;;;7.32;5.25;;;-9.10;99.90;;;;;;5050435;28;20218;-47
2022/12/13 09:35:42;;;;;;;5.53;4.32;;;-9.30;99.90;;;;;;5050360;28;20223;-47
2022/12/13 09:38:09;;;;;;;5.55;4.43;;;-8.90;99.90;;;;;;5050695;28;20196;-48
2022/12/13 09:40:38;;;;;;;13.02;4.07;;;-8.70;99.90;;;;;;5049264;28;20278;-49
2022/12/13 09:43:06;;;;;;;6.30;4.18;;;-8.80;99.90;;;;;;5049045;28;20224;-47
2022/12/13 09:45:35;;;;;;;4.55;3.65;;;-8.80;99.90;;;;;;5049074;28;20211;-48
2022/12/13 09:48:02;;;;;;;7.35;3.72;;;-8.90;99.90;;;;;;5049598;28;20199;-47
2022/12/13 09:50:34;;;;;;;2.85;2.63;;;-9.10;99.90;;;;;;5050332;28;20286;-47
2022/12/13 09:53:02;;;;;;;3.00;2.63;;;-8.70;99.90;;;;;;5050730;28;20736;-48
2022/12/13 09:55:32;;;;;;;3.15;2.85;;;-8.40;99.90;;;;;;5054597;28;20226;-48
2022/12/13 09:58:05;;;;;;;5.93;3.55;;;-8.30;99.90;;;;;;5054117;28;20676;-49
2022/12/13 10:00:35;;;;;;;2.85;2.58;;;-8.30;99.90;;;;;;5050827;28;20200;-47
2022/12/13 10:03:03;;;;;;;4.03;2.88;;;-8.10;99.90;;;;;;5043247;28;20647;-47
2022/12/13 10:05:34;;;;;;;2.13;1.83;;;-8.10;99.90;;;;;;5049323;28;20219;-46
2022/12/13 10:08:06;;;;;;;4.45;3.53;;;-8.10;99.90;;;;;;5052568;28;20195;-47
2022/12/13 10:10:33;;;;;;;7.18;5.10;;;-8.00;99.90;;;;;;5052872;28;20199;-46
2022/12/13 10:13:09;;;;;;;9.93;7.80;;;-8.00;99.90;;;;;;5045296;28;20209;-47
2022/12/13 10:15:40;;;;;;;11.30;8.00;;;-7.70;99.90;;;;;;5043131;28;20219;-48
2022/12/13 10:18:10;;;;;;;10.02;8.00;;;-7.60;99.90;;;;;;5042586;28;20219;-47
2022/12/13 10:20:39;;;;;;;6.53;5.88;;;-7.30;99.90;;;;;;5045702;28;20191;-47
2022/12/13 10:23:06;;;;;;;4.75;4.32;;;-6.90;99.90;;;;;;5047311;28;20206;-49
2022/12/13 10:25:46;;;;;;;3.53;3.22;;;-6.80;99.90;;;;;;5048168;28;20223;-50
2022/12/13 10:28:15;;;;;;;4.05;3.30;;;-6.50;99.90;;;;;;5050088;28;20616;-48
2022/12/13 10:30:43;;;;;;;4.25;3.08;;;-6.40;99.90;;;;;;5047171;28;20195;-48
2022/12/13 10:33:22;;;;;;;4.00;2.65;;;-6.40;99.90;;;;;;5046835;28;20195;-46
2022/12/13 10:36:07;;;;;;;3.30;2.30;;;-6.80;99.90;;;;;;5044401;28;20231;-47
2022/12/13 10:38:37;;;;;;;5.22;3.35;;;-7.00;99.90;;;;;;5048544;28;20191;-48
2022/12/13 10:41:24;;;;;;;3.70;3.40;;;-7.10;99.90;;;;;;5053563;28;20187;-50
2022/12/13 10:44:24;;;;;;;5.50;4.15;;;-6.80;99.90;;;;;;5053937;28;20548;-47
2022/12/13 10:47:00;;;;;;;4.95;3.25;;;-7.00;99.90;;;;;;5051221;28;20199;-48
2022/12/13 10:49:35;;;;;;;3.70;3.40;;;-7.10;99.90;;;;;;5054595;28;20223;-50
2022/12/13 10:52:04;;;;;;;3.58;2.67;;;-6.90;99.90;;;;;;5054107;28;20297;-47
2022/12/13 10:54:33;;;;;;;2.72;2.30;;;-7.00;99.90;;;;;;5053802;28;20215;-48
2022/12/13 10:57:01;;;;;;;3.00;2.47;;;-7.40;99.90;;;;;;5053755;28;20209;-47
2022/12/13 10:59:33;;;;;;;2.95;2.47;;;-7.10;99.90;;;;;;5052152;28;20613;-48
2022/12/13 11:02:02;;;;;;;4.93;3.65;;;-6.80;99.90;;;;;;5052922;28;20275;-48
2022/12/13 11:04:31;;;;;;;5.90;3.70;;;-6.90;99.90;;;;;;5051634;28;20260;-51
2022/12/13 11:07:01;;;;;;;4.55;3.20;;;-6.70;99.90;;;;;;5045960;28;20533;-49
2022/12/13 11:09:31;;;;;;;6.85;5.00;;;-7.50;99.90;;;;;;5044022;28;20459;-51
2022/12/13 11:12:01;;;;;;;4.35;3.50;;;-7.30;99.90;;;;;;5052280;28;20230;-48
2022/12/13 11:14:32;;;;;;;5.18;4.68;;;-7.00;99.90;;;;;;5052993;28;20196;-47
2022/12/13 11:17:05;;;;;;;3.83;2.85;;;-6.90;99.90;;;;;;5053314;28;20210;-48
2022/12/13 11:19:38;;;;;;;4.75;3.03;;;-7.30;99.90;;;;;;5052794;28;20195;-50
2022/12/13 11:22:07;;;;;;;3.90;2.70;;;-7.20;99.90;;;;;;5050540;28;20761;-48
2022/12/13 11:24:39;;;;;;;3.75;2.97;;;-7.20;99.90;;;;;;5050786;28;20211;-48
2022/12/13 11:27:21;;;;;;;2.90;2.70;;;-7.20;99.90;;;;;;5047306;28;20316;-49
2022/12/13 11:30:10;;;;;;;2.58;2.38;;;-6.90;99.90;;;;;;5031728;28;20196;-48
2022/12/13 11:33:00;;;;;;;3.50;2.20;;;-7.10;99.90;;;;;;5034098;28;20215;-49
2022/12/13 11:35:32;;;;;;;2.53;2.33;;;-6.60;99.90;;;;;;5050001;28;20656;-50
2022/12/13 11:38:06;;;;;;;2.53;2.03;;;-6.40;99.90;;;;;;5051999;28;20230;-50
2022/12/13 11:40:41;;;;;;;1.77;1.60;;;-6.40;99.90;;;;;;5044210;28;20642;-51
2022/12/13 11:43:15;;;;;;;3.33;2.40;;;-6.30;99.90;;;;;;5049145;28;20282;-47
2022/12/13 11:45:46;;;;;;;3.20;2.53;;;-6.20;99.90;;;;;;5052233;28;20822;-47
2022/12/13 11:48:20;;;;;;;2.50;2.30;;;-6.20;99.90;;;;;;5052717;28;20480;-47
2022/12/13 11:50:50;;;;;;;4.25;2.80;;;-6.10;99.90;;;;;;5051926;28;20453;-49
2022/12/13 11:53:22;;;;;;;3.43;3.13;;;-6.40;99.90;;;;;;5051002;28;20310;-49
2022/12/13 11:55:57;;;;;;;3.08;2.80;;;-6.20;99.90;;;;;;5055549;28;20466;-50
2022/12/13 11:58:33;;;;;;;2.27;1.70;;;-6.00;99.90;;;;;;5049311;28;20198;-49
2022/12/13 12:01:06;;;;;;;3.50;2.25;;;-6.20;99.90;;;;;;5049919;28;20461;-48
2022/12/13 12:03:39;;;;;;;2.90;2.20;;;-5.90;99.90;;;;;;5050820;28;20326;-49
2022/12/13 12:06:13;;;;;;;3.72;2.65;;;-5.80;99.90;;;;;;5051109;28;20220;-49
2022/12/13 12:08:45;;;;;;;4.20;3.33;;;-5.70;99.90;;;;;;5051106;28;20207;-48
2022/12/13 12:11:20;;;;;;;4.50;4.10;;;-5.60;99.90;;;;;;5049690;28;20532;-49
2022/12/13 12:13:52;;;;;;;5.90;4.07;;;-5.60;99.90;;;;;;5044870;28;20202;-48
2022/12/13 12:16:36;;;;;;;11.43;5.27;;;-5.50;99.90;;;;;;5048661;28;20251;-48
2022/12/13 12:19:08;;;;;;;5.80;4.90;;;-5.60;99.90;;;;;;5049962;28;20537;-48
2022/12/13 12:21:38;;;;;;;6.10;3.93;;;-5.40;99.90;;;;;;5050375;28;20442;-48
2022/12/13 12:24:17;;;;;;;6.50;3.80;;;-5.40;99.90;;;;;;5050083;28;20953;-49
2022/12/13 12:26:58;;;;;;;6.30;4.30;;;-5.70;99.90;;;;;;5050566;28;20742;-48
2022/12/13 12:29:49;;;;;;;13.07;5.47;;;-5.60;99.90;;;;;;5051404;28;20204;-48
2022/12/13 12:32:24;;;;;;;5.03;4.53;;;-5.70;99.90;;;;;;5051419;28;21078;-49
2022/12/13 12:35:01;;;;;;;6.15;4.45;;;-5.50;99.90;;;;;;5051470;28;20912;-46
2022/12/13 12:37:36;;;;;;;5.23;4.50;;;-5.70;99.90;;;;;;5051867;28;20256;-49
2022/12/13 12:40:31;;;;;;;6.47;5.85;;;-5.80;99.90;;;;;;5051668;28;20481;-49
2022/12/13 12:43:07;;;;;;;9.50;5.43;;;-5.40;99.90;;;;;;5050982;28;20198;-48
2022/12/13 12:45:46;;;;;;;7.17;5.20;;;-5.30;99.90;;;;;;5051382;28;20494;-48
2022/12/13 12:48:30;;;;;;;10.90;6.03;;;-5.20;99.90;;;;;;5051122;28;20449;-47
2022/12/13 12:51:04;;;;;;;7.20;6.47;;;-5.00;99.90;;;;;;5051506;28;20449;-49
2022/12/13 12:53:42;;;;;;;6.93;6.17;;;-5.10;99.90;;;;;;5051017;28;20938;-47
2022/12/13 12:56:24;;;;;;;8.63;5.30;;;-5.00;99.90;;;;;;5051238;28;20459;-49
2022/12/13 12:58:58;;;;;;;7.17;6.40;;;-4.90;99.90;;;;;;5051058;28;20834;-48
2022/12/13 13:01:39;;;;;;;4.83;4.10;;;-4.90;99.90;;;;;;5051100;28;20473;-49
2022/12/13 13:04:10;;;;;;;4.45;4.00;;;-4.90;99.90;;;;;;5051102;28;21018;-48